Flight Track Log - Related Links

Times and Time Zones

All times are in EDT time to prevent confusion due to time zone crossing. See the UAL3740 flight status page for this flight to view local times or setup timezone preferences in your user account.

Time Position Orientation Groundspeed Altitude Reporting Facility
EDT Latitude Longitude Course Direction KTS km/h meters Rate Location/Type
Sat 10:04:52 41.7006 -71.5058 261° West 183 340 853  Level Boston Center
Sat 10:06:12 41.7136 -71.5836 283° West 193 357 1,707 666 Climbing Boston Center
Sat 10:07:12 41.7808 -71.6494 324° Northwest 204 378 2,408 701 Climbing Boston Center
Sat 10:08:12 41.8417 -71.7183 320° Northwest 268 496 3,109 671 Climbing Boston Center
Sat 10:09:12 41.9131 -71.7956 321° Northwest 312 578 3,749 579 Climbing Boston Center
Sat 10:10:12 41.9697 -71.8872 310° West 328 607 4,267 640 Climbing Boston Center
Sat 10:11:12 41.9931 -72.0017 285° West 315 583 5,029 610 Climbing Boston Center
Sat 10:12:12 42.0164 -72.1047 287° West 315 583 5,486 533 Climbing Boston Center
Sat 10:13:12 42.0481 -72.2331 288° West 321 594 6,096 549 Climbing Boston Center
Sat 10:14:12 42.0753 -72.3506 287° West 327 605 6,584 488 Climbing Boston Center
Sat 10:15:12 42.0606 -72.4625 260° West 310 575 7,071 457 Climbing Boston Center
Sat 10:16:12 42.0419 -72.5742 257° West 310 575 7,498 457 Climbing Boston Center
Sat 10:17:12 42.0250 -72.6806 258° West 310 575 7,986 396 Climbing Boston Center
Sat 10:18:12 42.0039 -72.7922 256° West 305 565 8,291 274 Climbing Boston Center
Sat 10:19:12 41.9847 -72.9064 257° West 311 576 8,534 122 Climbing Boston Center
Sat 10:20:12 41.9633 -73.0208 256° West 323 599 8,534  Level Boston Center
Sat 10:21:12 41.9231 -73.1319 244° Southwest 342 634 8,534  Level Boston Center
Sat 10:22:12 41.8661 -73.2261 231° Southwest 337 624 8,534  Level Boston Center
Sat 10:23:12 41.8819 -73.3603 279° West 322 597 8,534  Level Boston Center
Sat 10:24:12 41.9244 -73.4975 293° West 355 658 8,534  Level Boston Center
Sat 10:25:13 41.8800 -73.5806 234° Southwest 281 520 8,534  Level Boston Center
Sat 10:26:13 41.8064 -73.6322 208° Southwest 269 499 8,534  Level Boston Center
Sat 10:27:12 41.7350 -73.6808 207° Southwest 282 523 8,534  Level Boston Center
Sat 10:29:35 41.5664 -73.7989 208° Southwest 286 529 8,534  Level New York Center
Sat 10:30:34 41.4922 -73.8508 208° Southwest 291 539 8,534  Level New York Center
Sat 10:31:34 41.4200 -73.9031 208° Southwest 291 539 8,534  Level New York Center
Sat 10:32:34 41.3456 -73.9547 208° Southwest 291 539 8,534  Level New York Center
Sat 10:33:35 41.2756 -74.0067 209° Southwest 297 550 8,534  Level New York Center
Sat 10:34:35 41.2033 -74.0556 207° Southwest 297 550 8,534  Level New York Center
Sat 10:35:36 41.1353 -74.1128 212° Southwest 297 550 8,534  Level New York Center
Sat 10:36:36 41.0889 -74.2042 236° Southwest 288 533 8,534  Level New York Center
Sat 10:37:34 41.0444 -74.2981 238° Southwest 298 552 8,534 -15 Level New York Center
Sat 10:38:35 41.0042 -74.3839 238° Southwest 298 552 8,504  Descending New York Center
Sat 10:39:35 40.9622 -74.4669 236° Southwest 291 539 8,534 15 Climbing New York Center
Sat 10:40:36 40.9239 -74.5528 239° Southwest 280 518 8,534  Level New York Center
Sat 10:41:34 40.8900 -74.6386 242° Southwest 275 509 8,534  Level New York Center
Sat 10:42:34 40.8619 -74.7331 249° West 275 509 8,534 -90 Level New York Center
Sat 10:43:36 40.8292 -74.8325 246° West 281 520 8,352 -240 Descending New York Center
Sat 10:44:36 40.7964 -74.9403 248° West 303 562 8,047 -313 Descending New York Center
Sat 10:45:33 40.7633 -75.0478 248° West 316 586 7,742 -310 Descending New York Center
Sat 10:46:34 40.7242 -75.1522 244° Southwest 327 605 7,437 -212 Descending New York Center
Sat 10:47:34 40.6747 -75.2447 235° Southwest 315 583 7,315 -61 Descending New York Center
Sat 10:48:34 40.6253 -75.3372 235° Southwest 310 575 7,315 -30 Level New York Center
Sat 10:49:35 40.5781 -75.4297 236° Southwest 310 575 7,254 -183 Descending New York Center
Sat 10:50:34 40.5286 -75.5219 235° Southwest 315 583 6,949 -277 Descending New York Center
Sat 10:51:34 40.4786 -75.6194 236° Southwest 315 583 6,706 -229 Descending New York Center
Sat 10:52:34 40.4289 -75.7114 235° Southwest 315 583 6,492 -257 Descending New York Center
Sat 10:53:35 40.3833 -75.8036 237° Southwest 315 583 6,187 -195 Descending New York Center
Sat 10:54:36 40.3317 -75.8953 234° Southwest 315 583 6,096 -46 Descending New York Center
Sat 10:55:34 40.2775 -75.9892 233° Southwest 321 594 6,096  Level New York Center
Sat 10:56:34 40.2294 -76.0833 236° Southwest 321 594 6,096  Level New York Center
Sat 10:57:34 40.1794 -76.1747 234° Southwest 321 594 6,096 -166 Level New York Center
Sat 10:58:35 40.1289 -76.2739 236° Southwest 321 594 5,761 -300 Descending New York Center
Sat 10:59:36 40.0850 -76.3681 239° Southwest 311 576 5,486 -281 Descending New York Center
Sat 11:01:24 40.0000 -76.5333 236° Southwest 306 566 4,968 -305 Descending Potomac TRACON
Sat 11:02:24 39.9667 -76.6333 247° West 307 568 4,633 -198 Descending Potomac TRACON
Sat 11:03:24 39.9167 -76.7333 237° Southwest 311 576 4,572 -15 Descending Potomac TRACON
Sat 11:04:24 39.8833 -76.8167 242° Southwest 299 554 4,602 15 Climbing Potomac TRACON
Sat 11:05:24 39.8333 -76.9167 237° Southwest 296 549 4,602 -32 Level Potomac TRACON
Sat 11:06:19 39.7833 -77.0000 232° Southwest 297 550 4,542 -207 Descending Potomac TRACON
Sat 11:07:19 39.7500 -77.0833 243° Southwest 293 542 4,206 -366 Descending Potomac TRACON
Sat 11:08:19 39.7000 -77.1667 232° Southwest 288 533 3,810 -423 Descending Potomac TRACON
Sat 11:09:20 39.6667 -77.2500 243° Southwest 256 475 3,353 -378 Descending Potomac TRACON
Sat 11:10:20 39.6333 -77.3333 243° Southwest 244 452 3,048 -305 Descending Potomac TRACON
Sat 11:11:20 39.5667 -77.3500 191° South 280 518 2,743 -320 Descending Potomac TRACON
Sat 11:12:20 39.4833 -77.3500 180° South 279 517 2,408 -289 Descending Potomac TRACON
Sat 11:13:14 39.4167 -77.3667 191° South 285 528 2,195 -273 Descending Potomac TRACON
Sat 11:14:14 39.3333 -77.3667 180° South 283 525 1,890 -335 Descending Potomac TRACON
Sat 11:15:14 39.2667 -77.3667 180° South 268 496 1,524 -335 Descending Potomac TRACON
Sat 11:16:14 39.1833 -77.3667 180° South 265 491 1,219 -152 Descending Potomac TRACON
Sat 11:17:14 39.1167 -77.3500 169° South 261 483 1,219  Level Potomac TRACON
Sat 11:18:14 39.0333 -77.3667 189° South 267 494 1,219 -136 Level Potomac TRACON
Sat 11:19:15 38.9667 -77.3667 180° South 265 491 945 -287 Descending Potomac TRACON
Sat 11:20:15 38.9000 -77.3500 169° South 247 457 640 -152 Descending Potomac TRACON
Sat 11:21:15 38.8333 -77.3667 191° South 237 439 640 -15 Level Potomac TRACON
Sat 11:22:15 38.8500 -77.4167 293° West 142 262 610 -107 Descending Potomac TRACON
Sat 11:23:15 38.8833 -77.4333 339° North 133 246 427 -213 Descending Potomac TRACON
Sat 11:24:15 38.9167 -77.4333 360° North 139 257 183 -244 Descending Potomac TRACON

Login

Don't have an account? Register now (free) for customized features, flight alerts, and more!